Terminal Aerodrome Forecast
Issued by NWS Denver/Boulder, CO

Home | Current Version | Previous Version | Text Only | Print | Product List | Glossary On
Versions: 1 2 3 4 5 6 7 8 9 10 11 12 13 14 15 16 17 18 19 20 21 22 23 24 25 26 27 28 29 30 31 32 33 34 35 36 37 38 39 40 41 42 43 44 45 46 47 48 49 50
000
FTUS45 KBOU 221704 AAD
TAFDEN
TAF AMD
KDEN 221704Z 2217/2318 13005KT P6SM BKN013 BKN025
     FM221800 12005KT P6SM SCT018 BKN025
     FM222000 12005KT P6SM SCT025 BKN040
     FM222200 10007KT P6SM SCT040 SCT110
     FM230100 14006KT P6SM FEW050 SCT120
     FM230300 15006KT P6SM SCT150
     FM230600 20011KT P6SM SKC=

USA.gov is the U.S. government's official web portal to all federal, state and local government web resources and services.